Time;durP1;ratioP1;P1;durP2;ratioP2;P2;SDS_P1;SDS_P2;PMS_P1;PMS_P2;Temp;Humidity;BMP_temperature;BMP_pressure;BME280_temperature;BME280_humidity;BME280_pressure;Samples;Min_cycle;Max_cycle;Signal;HPM_P1;HPM_P2
2022/06/10 00:00:06;;;;;;;;;;;15.40;83.70;;;;;;5022797;28;20003;-82
2022/06/10 00:02:31;;;;;;;;;;;15.40;83.40;;;;;;5027449;28;19917;-81
2022/06/10 00:04:57;;;;;;;;;;;15.50;83.40;;;;;;5040990;28;20562;-81
2022/06/10 00:07:24;;;;;;;;;;;15.50;83.40;;;;;;5033125;28;19972;-81
2022/06/10 00:09:50;;;;;;;;;;;15.40;83.00;;;;;;5014076;28;20399;-82
2022/06/10 00:12:15;;;;;;;;;;;15.50;83.00;;;;;;5019619;28;19917;-81
2022/06/10 00:14:41;;;;;;;;;;;15.50;82.80;;;;;;5015879;28;19924;-82
2022/06/10 00:17:06;;;;;;;;;;;15.50;82.80;;;;;;5030613;28;20249;-82
2022/06/10 00:19:32;;;;;;;;;;;15.50;83.20;;;;;;5015501;28;19913;-82
2022/06/10 00:21:57;;;;;;;;;;;15.40;83.10;;;;;;5013726;28;19920;-82
2022/06/10 00:24:23;;;;;;;;;;;15.50;82.60;;;;;;5013320;28;19914;-82
2022/06/10 00:26:48;;;;;;;;;;;15.50;82.70;;;;;;5032969;28;19913;-81
2022/06/10 00:29:14;;;;;;;;;;;15.50;82.50;;;;;;5030053;28;19921;-81
2022/06/10 00:31:39;;;;;;;;;;;15.50;82.30;;;;;;5030006;28;19943;-81
2022/06/10 00:34:04;;;;;;;;;;;15.40;82.30;;;;;;5032828;28;19917;-80
2022/06/10 00:36:30;;;;;;;;;;;15.30;82.20;;;;;;5042064;28;19917;-80
2022/06/10 00:38:55;;;;;;;;;;;15.30;82.50;;;;;;5031301;28;19925;-80
2022/06/10 00:41:21;;;;;;;;;;;15.20;82.50;;;;;;5034072;28;19999;-80
2022/06/10 00:43:47;;;;;;;;;;;15.30;82.10;;;;;;5019397;28;19909;-80
2022/06/10 00:46:18;;;;;;;;;;;15.10;82.40;;;;;;5040649;28;19959;-80
2022/06/10 00:48:43;;;;;;;;;;;15.10;82.40;;;;;;5006319;28;19909;-80
2022/06/10 00:51:18;;;;;;;;;;;15.10;82.30;;;;;;5027403;28;20008;-80
2022/06/10 00:53:44;;;;;;;;;;;15.00;82.40;;;;;;5023602;28;20363;-81
2022/06/10 00:56:12;;;;;;;;;;;15.00;82.50;;;;;;5009218;28;19949;-81
2022/06/10 00:58:41;;;;;;;;;;;15.00;82.60;;;;;;5030084;28;19916;-81
2022/06/10 01:01:10;;;;;;;;;;;15.00;82.50;;;;;;5014258;28;19921;-80
2022/06/10 01:03:35;;;;;;;;;;;15.00;82.40;;;;;;5034190;28;19917;-81
2022/06/10 01:06:01;;;;;;;;;;;15.00;82.70;;;;;;5033405;28;19917;-80
2022/06/10 01:08:26;;;;;;;;;;;14.90;82.70;;;;;;5045614;28;19909;-80
2022/06/10 01:11:11;;;;;;;;;;;15.00;82.50;;;;;;5011459;28;19924;-80
2022/06/10 01:13:36;;;;;;;;;;;14.80;82.90;;;;;;5035798;28;19913;-81
2022/06/10 01:16:02;;;;;;;;;;;14.80;83.00;;;;;;5021562;28;19917;-80
2022/06/10 01:18:34;;;;;;;;;;;14.80;83.40;;;;;;5022846;28;20398;-81
2022/06/10 01:21:18;;;;;;;;;;;14.90;83.30;;;;;;5038200;28;20348;-81
2022/06/10 01:23:55;;;;;;;;;;;14.90;83.00;;;;;;5028425;28;19917;-81
2022/06/10 01:29:30;;;;;;;;;;;14.90;82.30;;;;;;5031178;28;19981;-81
2022/06/10 01:32:00;;;;;;;;;;;14.80;82.70;;;;;;5032273;28;19956;-81
2022/06/10 01:34:27;;;;;;;;;;;14.80;82.80;;;;;;5011348;28;19924;-81
2022/06/10 01:36:52;;;;;;;;;;;14.70;82.90;;;;;;5032214;28;19921;-81
2022/06/10 01:39:17;;;;;;;;;;;14.70;82.80;;;;;;5032871;28;19921;-81
2022/06/10 01:42:02;;;;;;;;;;;14.70;83.00;;;;;;5032279;28;19917;-81
2022/06/10 01:44:39;;;;;;;;;;;14.70;83.20;;;;;;5025957;28;19914;-81
2022/06/10 01:47:10;;;;;;;;;;;14.80;83.20;;;;;;5033940;28;19913;-81
2022/06/10 01:49:38;;;;;;;;;;;14.80;82.60;;;;;;5031553;28;19956;-81
2022/06/10 01:52:11;;;;;;;;;;;14.90;82.10;;;;;;5031878;28;19924;-81
2022/06/10 01:54:42;;;;;;;;;;;14.70;82.30;;;;;;5016060;28;20074;-81
2022/06/10 01:57:10;;;;;;;;;;;14.60;82.80;;;;;;5033893;28;20004;-81
2022/06/10 01:59:44;;;;;;;;;;;14.70;82.40;;;;;;5031365;28;20008;-81
2022/06/10 02:02:12;;;;;;;;;;;14.70;82.40;;;;;;5006097;28;20273;-81
2022/06/10 02:04:47;;;;;;;;;;;14.80;82.10;;;;;;5019370;28;19956;-80
2022/06/10 02:07:23;;;;;;;;;;;14.70;82.10;;;;;;5028536;28;19913;-81
2022/06/10 02:09:52;;;;;;;;;;;14.60;82.50;;;;;;5015073;28;20000;-81
2022/06/10 02:12:28;;;;;;;;;;;14.60;82.50;;;;;;5031255;28;20443;-80
2022/06/10 02:15:04;;;;;;;;;;;14.60;82.50;;;;;;5015114;28;20366;-81
2022/06/10 02:17:33;;;;;;;;;;;14.60;82.00;;;;;;5015072;28;20011;-81
2022/06/10 02:20:00;;;;;;;;;;;14.60;81.90;;;;;;5032405;28;19944;-80
2022/06/10 02:22:28;;;;;;;;;;;14.50;82.30;;;;;;5030930;28;20467;-81
2022/06/10 02:24:58;;;;;;;;;;;14.60;82.10;;;;;;5033984;28;19924;-81
2022/06/10 02:27:26;;;;;;;;;;;14.60;82.10;;;;;;5028398;28;20337;-81
2022/06/10 02:30:10;;;;;;;;;;;14.60;82.10;;;;;;5033530;28;19932;-81
2022/06/10 02:32:36;;;;;;;;;;;14.60;82.20;;;;;;5026022;28;19913;-81
2022/06/10 02:35:03;;;;;;;;;;;14.60;82.10;;;;;;5015797;28;20264;-81
2022/06/10 02:37:33;;;;;;;;;;;14.50;81.90;;;;;;5013664;28;19920;-81
2022/06/10 02:39:59;;;;;;;;;;;14.40;82.10;;;;;;5032694;28;19951;-81
2022/06/10 02:42:30;;;;;;;;;;;14.30;82.60;;;;;;5015669;28;19917;-81
2022/06/10 02:44:56;;;;;;;;;;;14.30;82.80;;;;;;5034346;28;20308;-81
2022/06/10 02:47:40;;;;;;;;;;;14.30;82.90;;;;;;5033760;28;19914;-81
2022/06/10 02:50:09;;;;;;;;;;;14.30;83.00;;;;;;5010300;28;19917;-81
2022/06/10 02:52:35;;;;;;;;;;;14.30;83.10;;;;;;5010279;28;19921;-81
2022/06/10 02:55:01;;;;;;;;;;;14.30;82.90;;;;;;5026125;28;19967;-81
2022/06/10 03:03:05;;;;;;;;;;;14.50;82.30;;;;;;5031740;28;19936;-81
2022/06/10 03:05:38;;;;;;;;;;;14.50;82.30;;;;;;5032741;28;19921;-80
2022/06/10 03:08:08;;;;;;;;;;;14.40;82.30;;;;;;5015368;28;19917;-81
2022/06/10 03:10:57;;;;;;;;;;;14.30;83.10;;;;;;5028536;28;20322;-81
2022/06/10 03:13:28;;;;;;;;;;;14.40;82.90;;;;;;5031641;28;20218;-81
2022/06/10 03:16:00;;;;;;;;;;;14.40;82.90;;;;;;5032283;28;19913;-81
2022/06/10 03:18:29;;;;;;;;;;;14.40;82.40;;;;;;5031358;28;19956;-81
2022/06/10 03:21:13;;;;;;;;;;;14.40;82.60;;;;;;5030690;28;19921;-81
2022/06/10 03:23:49;;;;;;;;;;;14.40;82.50;;;;;;5014312;28;19952;-80
2022/06/10 03:26:17;;;;;;;;;;;14.40;83.00;;;;;;5028848;28;19956;-81
2022/06/10 03:28:51;;;;;;;;;;;14.40;82.60;;;;;;5029712;28;19917;-81
2022/06/10 03:31:25;;;;;;;;;;;14.40;82.30;;;;;;5011378;28;19976;-81
2022/06/10 03:33:54;;;;;;;;;;;14.40;82.20;;;;;;5029785;28;19921;-81
2022/06/10 03:36:23;;;;;;;;;;;14.50;81.80;;;;;;5013155;28;19924;-81
2022/06/10 03:38:49;;;;;;;;;;;14.50;81.90;;;;;;5013670;28;19940;-81
2022/06/10 03:41:23;;;;;;;;;;;14.50;82.00;;;;;;5029635;28;19920;-81
2022/06/10 03:43:50;;;;;;;;;;;14.50;82.40;;;;;;5018760;28;19913;-81
2022/06/10 03:46:16;;;;;;;;;;;14.40;82.30;;;;;;5006337;28;19917;-81
2022/06/10 03:48:43;;;;;;;;;;;14.40;82.50;;;;;;5036339;28;19924;-81
2022/06/10 03:51:10;;;;;;;;;;;14.40;82.50;;;;;;5016062;28;20401;-81
2022/06/10 03:53:35;;;;;;;;;;;14.50;82.20;;;;;;5029266;28;19968;-81
2022/06/10 03:56:01;;;;;;;;;;;14.40;82.50;;;;;;5010431;28;20313;-80
2022/06/10 03:58:26;;;;;;;;;;;14.30;83.10;;;;;;5025180;28;19929;-81
2022/06/10 04:00:51;;;;;;;;;;;14.30;82.80;;;;;;5030041;28;19944;-81
2022/06/10 04:03:17;;;;;;;;;;;14.30;83.10;;;;;;5013332;28;20301;-80
2022/06/10 04:05:42;;;;;;;;;;;14.20;82.70;;;;;;5017097;28;19927;-81
2022/06/10 04:08:08;;;;;;;;;;;14.20;83.20;;;;;;5012875;28;19913;-81
2022/06/10 04:10:34;;;;;;;;;;;14.20;83.30;;;;;;5009288;28;19928;-81
2022/06/10 04:12:59;;;;;;;;;;;14.20;83.20;;;;;;5029509;28;19913;-81
2022/06/10 04:15:27;;;;;;;;;;;14.20;83.20;;;;;;5011647;28;19960;-80
2022/06/10 04:17:53;;;;;;;;;;;14.20;82.80;;;;;;5029070;28;20592;-81
2022/06/10 04:20:21;;;;;;;;;;;14.30;82.50;;;;;;5032871;28;19909;-81
2022/06/10 04:22:46;;;;;;;;;;;14.30;82.80;;;;;;5039948;28;20284;-81
2022/06/10 04:25:12;;;;;;;;;;;14.30;83.30;;;;;;5032045;28;19918;-80
2022/06/10 04:27:37;;;;;;;;;;;14.30;83.10;;;;;;5034705;28;19921;-81
2022/06/10 04:30:04;;;;;;;;;;;14.20;82.70;;;;;;5019347;28;19917;-80
2022/06/10 04:32:29;;;;;;;;;;;14.20;82.80;;;;;;5023931;28;19913;-81
2022/06/10 04:34:55;;;;;;;;;;;14.30;83.10;;;;;;5015907;28;19953;-81
2022/06/10 04:37:20;;;;;;;;;;;14.40;82.60;;;;;;5030879;28;19924;-81
2022/06/10 04:39:46;;;;;;;;;;;14.30;82.40;;;;;;5038439;28;19916;-82
2022/06/10 04:42:11;;;;;;;;;;;14.40;82.70;;;;;;5027490;28;19970;-81
2022/06/10 04:44:37;;;;;;;;;;;14.50;82.60;;;;;;5018966;28;19977;-81
2022/06/10 04:47:02;;;;;;;;;;;14.50;82.40;;;;;;5032542;28;19944;-81
2022/06/10 04:49:29;;;;;;;;;;;14.50;82.40;;;;;;5033639;28;19917;-81
2022/06/10 04:51:55;;;;;;;;;;;14.60;81.80;;;;;;5029359;28;19961;-81
2022/06/10 04:54:20;;;;;;;;;;;14.60;81.30;;;;;;5031592;28;20395;-81
2022/06/10 04:56:46;;;;;;;;;;;14.60;81.70;;;;;;5011766;28;19913;-81
2022/06/10 04:59:11;;;;;;;;;;;14.90;81.30;;;;;;5032484;28;19982;-82
2022/06/10 05:01:37;;;;;;;;;;;14.80;81.30;;;;;;5018666;28;19913;-81
2022/06/10 05:04:02;;;;;;;;;;;14.90;81.20;;;;;;5034295;28;19917;-81
2022/06/10 05:06:28;;;;;;;;;;;14.90;81.50;;;;;;5014884;28;19921;-81
2022/06/10 05:08:53;;;;;;;;;;;14.80;81.30;;;;;;5039730;28;20340;-84
2022/06/10 05:11:19;;;;;;;;;;;14.80;81.60;;;;;;5037479;28;19920;-84
2022/06/10 05:13:44;;;;;;;;;;;14.90;81.40;;;;;;5048632;28;19989;-85
2022/06/10 05:16:10;;;;;;;;;;;15.00;80.90;;;;;;5019664;28;19918;-86
2022/06/10 05:18:36;;;;;;;;;;;15.00;80.90;;;;;;5018562;28;20291;-86
2022/06/10 05:21:01;;;;;;;;;;;15.00;80.80;;;;;;5028910;28;19925;-85
2022/06/10 05:23:27;;;;;;;;;;;15.10;80.70;;;;;;5036542;28;20267;-84
2022/06/10 05:25:53;;;;;;;;;;;15.10;81.00;;;;;;5026635;28;19993;-85
2022/06/10 05:28:19;;;;;;;;;;;15.20;80.60;;;;;;5025762;28;19921;-85
2022/06/10 05:30:45;;;;;;;;;;;15.30;81.30;;;;;;5030955;28;19989;-85
2022/06/10 05:33:11;;;;;;;;;;;15.40;80.50;;;;;;5030902;28;19941;-85
2022/06/10 05:35:37;;;;;;;;;;;15.60;79.60;;;;;;5012608;28;19921;-85
2022/06/10 05:38:02;;;;;;;;;;;15.60;79.10;;;;;;5032570;28;20047;-85
2022/06/10 05:40:30;;;;;;;;;;;15.70;79.20;;;;;;5030495;28;19913;-84
2022/06/10 05:42:55;;;;;;;;;;;15.80;78.90;;;;;;5019561;28;20012;-84
2022/06/10 05:45:21;;;;;;;;;;;16.20;78.00;;;;;;5015794;28;19948;-85
2022/06/10 05:47:48;;;;;;;;;;;16.10;77.50;;;;;;5020376;28;19996;-86
2022/06/10 05:50:19;;;;;;;;;;;16.10;77.70;;;;;;5017358;28;19917;-89
2022/06/10 05:52:45;;;;;;;;;;;16.10;77.90;;;;;;5030308;28;19936;-86
2022/06/10 05:55:10;;;;;;;;;;;16.20;76.70;;;;;;5036473;28;20209;-86
2022/06/10 05:57:36;;;;;;;;;;;16.40;77.20;;;;;;5014568;28;19956;-84
2022/06/10 06:00:03;;;;;;;;;;;16.50;76.90;;;;;;5022542;28;20008;-86
2022/06/10 06:02:30;;;;;;;;;;;16.70;75.60;;;;;;5034675;28;20343;-86
2022/06/10 06:04:58;;;;;;;;;;;16.80;74.90;;;;;;5015867;28;20296;-86
2022/06/10 06:07:28;;;;;;;;;;;17.00;74.40;;;;;;5013921;28;20404;-86
2022/06/10 06:09:57;;;;;;;;;;;17.10;73.40;;;;;;5007846;28;19932;-85
2022/06/10 06:12:22;;;;;;;;;;;17.20;73.50;;;;;;5025823;28;19928;-85
2022/06/10 06:14:53;;;;;;;;;;;17.20;72.50;;;;;;5031377;28;19913;-85
2022/06/10 06:17:21;;;;;;;;;;;17.40;72.70;;;;;;5029900;28;20337;-85
2022/06/10 06:19:46;;;;;;;;;;;17.50;72.20;;;;;;5012328;28;19921;-86
2022/06/10 06:22:12;;;;;;;;;;;17.50;72.30;;;;;;5033825;28;20316;-85
2022/06/10 06:24:38;;;;;;;;;;;17.50;72.40;;;;;;5018667;28;19971;-86
2022/06/10 06:27:05;;;;;;;;;;;17.60;72.10;;;;;;5017292;28;19960;-85
2022/06/10 06:29:31;;;;;;;;;;;17.60;72.30;;;;;;5016581;28;19927;-88
2022/06/10 06:31:56;;;;;;;;;;;17.60;72.10;;;;;;5022858;28;20255;-87
2022/06/10 06:34:22;;;;;;;;;;;17.60;72.10;;;;;;5006831;28;19944;-86
2022/06/10 06:36:49;;;;;;;;;;;17.60;72.50;;;;;;5004909;28;19913;-85
2022/06/10 06:39:16;;;;;;;;;;;17.60;72.10;;;;;;5029423;28;19978;-87
2022/06/10 06:41:42;;;;;;;;;;;17.60;71.40;;;;;;5012230;28;19928;-86
2022/06/10 06:44:07;;;;;;;;;;;17.50;71.80;;;;;;5014436;28;19909;-84
2022/06/10 06:46:33;;;;;;;;;;;17.60;72.00;;;;;;5018659;28;19968;-84
2022/06/10 06:49:00;;;;;;;;;;;17.70;72.20;;;;;;5034478;28;19908;-83
2022/06/10 06:51:26;;;;;;;;;;;17.80;70.80;;;;;;5018400;28;19923;-84
2022/06/10 06:53:51;;;;;;;;;;;17.80;71.10;;;;;;5015279;28;19910;-86
2022/06/10 06:56:17;;;;;;;;;;;17.80;71.20;;;;;;5016119;28;20290;-85
2022/06/10 06:58:42;;;;;;;;;;;17.90;71.80;;;;;;5029074;28;19964;-85
2022/06/10 07:01:08;;;;;;;;;;;18.00;70.60;;;;;;5033621;28;20321;-85
2022/06/10 07:03:33;;;;;;;;;;;18.00;70.00;;;;;;5033156;28;19920;-83
2022/06/10 07:05:59;;;;;;;;;;;18.00;69.70;;;;;;5037664;28;19909;-85
2022/06/10 07:08:31;;;;;;;;;;;18.10;69.40;;;;;;5033820;28;19947;-86
2022/06/10 07:11:00;;;;;;;;;;;18.00;68.50;;;;;;5034307;28;20017;-86
2022/06/10 07:13:27;;;;;;;;;;;18.00;68.50;;;;;;5034132;28;20370;-86
2022/06/10 07:15:53;;;;;;;;;;;18.00;68.50;;;;;;5014628;28;19952;-86
2022/06/10 07:18:19;;;;;;;;;;;18.00;68.40;;;;;;5011400;28;19914;-85
2022/06/10 07:20:45;;;;;;;;;;;18.10;68.90;;;;;;5034526;28;20399;-84
2022/06/10 07:23:11;;;;;;;;;;;18.20;68.70;;;;;;5028543;28;19932;-83
2022/06/10 07:25:36;;;;;;;;;;;18.30;68.10;;;;;;5029209;28;19967;-85
2022/06/10 07:28:02;;;;;;;;;;;18.40;67.60;;;;;;5014580;28;20068;-85
2022/06/10 07:30:29;;;;;;;;;;;18.50;67.50;;;;;;5016982;28;19913;-85
2022/06/10 07:32:54;;;;;;;;;;;18.50;67.30;;;;;;5033979;28;20406;-84
2022/06/10 07:35:21;;;;;;;;;;;18.60;67.30;;;;;;5022698;28;19929;-84
2022/06/10 07:37:49;;;;;;;;;;;18.60;66.80;;;;;;5020701;28;19913;-84
2022/06/10 07:43:02;;;;;;;;;;;18.50;66.10;;;;;;5026901;28;19940;-82
2022/06/10 07:45:28;;;;;;;;;;;18.60;65.90;;;;;;5034505;28;19985;-86
2022/06/10 07:47:54;;;;;;;;;;;18.70;64.70;;;;;;5032702;28;19920;-84
2022/06/10 07:50:23;;;;;;;;;;;18.60;64.60;;;;;;5025112;28;20566;-83
2022/06/10 07:52:49;;;;;;;;;;;18.60;64.90;;;;;;5018337;28;19913;-84
2022/06/10 07:55:15;;;;;;;;;;;18.60;66.10;;;;;;5019216;28;19923;-84
2022/06/10 07:57:41;;;;;;;;;;;18.60;66.20;;;;;;5037495;28;19913;-84
2022/06/10 08:00:06;;;;;;;;;;;18.60;65.70;;;;;;5035853;28;19984;-83
2022/06/10 08:02:32;;;;;;;;;;;18.60;65.60;;;;;;5035867;28;19917;-83
2022/06/10 08:04:57;;;;;;;;;;;18.60;65.70;;;;;;5035700;28;19917;-84
2022/06/10 08:07:23;;;;;;;;;;;18.60;66.60;;;;;;5012303;28;19917;-84
2022/06/10 08:09:48;;;;;;;;;;;18.70;65.90;;;;;;5023633;28;19917;-83
2022/06/10 08:12:14;;;;;;;;;;;18.60;65.70;;;;;;5024399;28;19916;-84
2022/06/10 08:14:39;;;;;;;;;;;18.60;65.90;;;;;;5020240;28;19915;-84
2022/06/10 08:17:07;;;;;;;;;;;18.60;65.90;;;;;;5027012;28;19921;-84
2022/06/10 08:19:32;;;;;;;;;;;18.70;65.70;;;;;;5035220;28;19923;-83
2022/06/10 08:24:42;;;;;;;;;;;18.80;65.60;;;;;;5031117;28;19988;-84
2022/06/10 08:27:08;;;;;;;;;;;18.80;65.80;;;;;;5033887;28;19913;-84
2022/06/10 08:29:33;;;;;;;;;;;18.80;66.00;;;;;;5018717;28;19917;-84
2022/06/10 08:31:59;;;;;;;;;;;18.80;66.40;;;;;;5030338;28;20363;-84
2022/06/10 08:34:24;;;;;;;;;;;18.80;66.90;;;;;;5022812;28;19917;-82
2022/06/10 08:36:50;;;;;;;;;;;18.80;66.60;;;;;;5049385;28;19917;-83
2022/06/10 08:39:15;;;;;;;;;;;18.80;67.00;;;;;;5030204;28;19928;-84
2022/06/10 08:41:40;;;;;;;;;;;19.20;66.80;;;;;;5057063;28;19909;-81
2022/06/10 08:44:21;;;;;;;;;;;19.00;66.00;;;;;;5038486;28;19914;-82
2022/06/10 08:47:05;;;;;;;;;;;18.80;65.80;;;;;;5012270;28;19933;-82
2022/06/10 08:49:55;;;;;;;;;;;18.70;67.50;;;;;;5017219;28;19917;-83
2022/06/10 08:52:27;;;;;;;;;;;18.70;67.80;;;;;;5030228;28;20004;-82
2022/06/10 08:55:00;;;;;;;;;;;18.90;67.70;;;;;;5033764;28;20296;-83
2022/06/10 08:57:32;;;;;;;;;;;19.10;67.30;;;;;;5016025;28;19909;-84
2022/06/10 08:59:59;;;;;;;;;;;19.30;66.10;;;;;;5024333;28;19917;-83
2022/06/10 09:02:38;;;;;;;;;;;19.30;66.50;;;;;;5050329;28;19976;-84
2022/06/10 09:05:04;;;;;;;;;;;19.30;65.80;;;;;;5040660;28;19985;-84
2022/06/10 09:07:36;;;;;;;;;;;19.30;66.20;;;;;;5026522;28;19925;-84
2022/06/10 09:10:03;;;;;;;;;;;19.40;65.30;;;;;;5040264;28;19940;-83
2022/06/10 09:12:28;;;;;;;;;;;19.50;64.70;;;;;;5031528;28;19928;-83
2022/06/10 09:14:57;;;;;;;;;;;19.50;65.00;;;;;;5035944;28;19913;-83
2022/06/10 09:17:30;;;;;;;;;;;19.60;65.70;;;;;;5009996;28;19971;-82
2022/06/10 09:19:55;;;;;;;;;;;19.70;64.60;;;;;;5028559;28;19969;-83
2022/06/10 09:22:39;;;;;;;;;;;19.60;64.40;;;;;;5033487;28;19917;-83
2022/06/10 09:25:23;;;;;;;;;;;19.60;64.90;;;;;;5044992;28;20001;-82
2022/06/10 09:27:51;;;;;;;;;;;19.90;64.20;;;;;;5024014;28;19967;-83
2022/06/10 09:30:19;;;;;;;;;;;20.00;64.80;;;;;;5021916;28;19917;-83
2022/06/10 09:33:05;;;;;;;;;;;20.30;63.80;;;;;;5021065;28;19909;-82
2022/06/10 09:35:33;;;;;;;;;;;20.50;63.80;;;;;;5023768;28;20036;-82
2022/06/10 09:38:09;;;;;;;;;;;20.80;61.80;;;;;;5039785;28;19981;-83
2022/06/10 09:40:37;;;;;;;;;;;20.90;61.60;;;;;;5022107;28;19932;-84
2022/06/10 09:43:14;;;;;;;;;;;21.00;61.40;;;;;;5022397;28;19917;-83
2022/06/10 09:45:58;;;;;;;;;;;21.20;60.90;;;;;;5021327;28;19932;-84
2022/06/10 09:48:43;;;;;;;;;;;21.10;59.60;;;;;;5019381;28;19913;-83
2022/06/10 09:51:14;;;;;;;;;;;21.10;60.80;;;;;;5037120;28;20513;-82
2022/06/10 09:53:56;;;;;;;;;;;21.10;60.60;;;;;;5018063;28;20368;-81
2022/06/10 09:56:40;;;;;;;;;;;21.10;60.80;;;;;;5019183;28;19933;-84
2022/06/10 09:59:21;;;;;;;;;;;21.10;60.10;;;;;;5028218;28;19959;-79
2022/06/10 10:02:05;;;;;;;;;;;21.10;60.30;;;;;;5035454;28;20377;-80
2022/06/10 10:05:00;;;;;;;;;;;21.10;61.80;;;;;;5026151;28;20424;-82
2022/06/10 10:07:46;;;;;;;;;;;21.10;60.90;;;;;;5003356;28;19913;-80
2022/06/10 10:10:50;;;;;;;;;;;21.00;61.30;;;;;;4972847;28;19936;-81
2022/06/10 10:13:29;;;;;;;;;;;20.80;61.10;;;;;;4952427;29;20649;-81
2022/06/10 10:16:00;;;;;;;;;;;20.70;62.30;;;;;;4945981;29;20488;-81
2022/06/10 10:18:33;;;;;;;;;;;20.70;62.80;;;;;;5001035;28;19920;-81
2022/06/10 10:21:04;;;;;;;;;;;20.60;63.30;;;;;;5041752;28;19965;-82
2022/06/10 10:23:34;;;;;;;;;;;20.50;63.10;;;;;;5027199;28;19933;-82
2022/06/10 10:26:02;;;;;;;;;;;20.50;63.00;;;;;;5037026;28;19921;-82
2022/06/10 10:28:30;;;;;;;;;;;20.60;63.40;;;;;;5040668;28;21437;-82
2022/06/10 10:31:14;;;;;;;;;;;20.70;63.60;;;;;;5026478;28;19933;-83
2022/06/10 10:33:39;;;;;;;;;;;20.80;64.00;;;;;;5038544;28;19936;-81
2022/06/10 10:36:10;;;;;;;;;;;20.90;62.60;;;;;;5026613;28;20391;-82
2022/06/10 10:38:39;;;;;;;;;;;21.00;62.90;;;;;;5062223;28;19917;-81
2022/06/10 10:41:19;;;;;;;;;;;21.10;62.60;;;;;;5029843;28;20000;-82
2022/06/10 10:43:46;;;;;;;;;;;21.30;62.30;;;;;;5027039;28;20027;-80
2022/06/10 10:46:26;;;;;;;;;;;21.30;62.40;;;;;;5041947;28;19971;-80
2022/06/10 10:48:51;;;;;;;;;;;21.30;61.80;;;;;;5020563;28;19917;-81
2022/06/10 10:51:19;;;;;;;;;;;21.40;63.30;;;;;;5035899;28;19989;-80
2022/06/10 10:53:55;;;;;;;;;;;21.50;62.40;;;;;;5021847;28;19987;-80
2022/06/10 10:56:31;;;;;;;;;;;21.50;62.50;;;;;;5025373;28;19924;-80
2022/06/10 10:58:57;;;;;;;;;;;21.60;62.30;;;;;;5021125;28;19913;-79
2022/06/10 11:01:50;;;;;;;;;;;21.50;61.30;;;;;;5038991;28;19932;-80
2022/06/10 11:04:33;;;;;;;;;;;21.50;61.80;;;;;;5053367;28;19937;-79
2022/06/10 11:07:05;;;;;;;;;;;21.60;62.20;;;;;;5041006;28;20016;-79
2022/06/10 11:09:31;;;;;;;;;;;21.70;62.70;;;;;;5042539;28;19917;-80
2022/06/10 11:11:57;;;;;;;;;;;21.90;61.60;;;;;;5021414;28;19966;-82
2022/06/10 11:14:34;;;;;;;;;;;21.80;60.70;;;;;;5041287;28;19928;-82
2022/06/10 11:17:11;;;;;;;;;;;21.80;60.80;;;;;;5028613;28;19920;-82
2022/06/10 11:19:37;;;;;;;;;;;21.80;60.00;;;;;;5032769;28;19921;-82
2022/06/10 11:22:21;;;;;;;;;;;21.80;60.80;;;;;;5023703;28;20053;-82
2022/06/10 11:25:14;;;;;;;;;;;22.10;61.30;;;;;;5016000;28;19912;-82
2022/06/10 11:27:40;;;;;;;;;;;22.20;58.90;;;;;;5007333;28;19909;-81
2022/06/10 11:30:06;;;;;;;;;;;22.20;60.40;;;;;;5026874;28;20575;-82
2022/06/10 11:32:37;;;;;;;;;;;22.40;60.90;;;;;;5015101;28;19989;-82
2022/06/10 11:35:19;;;;;;;;;;;22.80;59.70;;;;;;5016712;28;19925;-81
2022/06/10 11:37:47;;;;;;;;;;;22.60;58.80;;;;;;5014998;28;19913;-82
2022/06/10 11:40:20;;;;;;;;;;;22.80;59.00;;;;;;5014441;28;19943;-81
2022/06/10 11:42:51;;;;;;;;;;;22.70;60.50;;;;;;5031529;28;19940;-81
2022/06/10 11:45:22;;;;;;;;;;;22.60;57.70;;;;;;5041532;28;19925;-81
2022/06/10 11:48:01;;;;;;;;;;;22.60;58.80;;;;;;5026851;28;19920;-82
2022/06/10 11:50:30;;;;;;;;;;;22.60;58.10;;;;;;5036387;28;19921;-84
2022/06/10 11:52:56;;;;;;;;;;;22.60;56.70;;;;;;5038403;28;19913;-83
2022/06/10 11:55:24;;;;;;;;;;;22.60;57.80;;;;;;5036215;28;19928;-82
2022/06/10 12:00:45;;;;;;;;;;;22.90;56.70;;;;;;5040920;28;19928;-81
2022/06/10 12:03:17;;;;;;;;;;;22.90;56.40;;;;;;5025626;28;19960;-83
2022/06/10 12:05:46;;;;;;;;;;;22.90;55.90;;;;;;5016565;28;19917;-83
2022/06/10 12:08:35;;;;;;;;;;;22.70;56.70;;;;;;5040189;28;20396;-83
2022/06/10 12:11:10;;;;;;;;;;;22.80;56.90;;;;;;5002488;28;19917;-83
2022/06/10 12:13:44;;;;;;;;;;;22.80;56.40;;;;;;5035346;28;19913;-83
2022/06/10 12:16:10;;;;;;;;;;;23.10;58.00;;;;;;5040775;28;19913;-84
2022/06/10 12:18:40;;;;;;;;;;;23.30;55.50;;;;;;5019503;28;19921;-86
2022/06/10 12:21:06;;;;;;;;;;;23.30;57.10;;;;;;5016680;28;19952;-83
2022/06/10 12:23:35;;;;;;;;;;;23.30;54.80;;;;;;5017810;28;19920;-84
2022/06/10 12:26:16;;;;;;;;;;;23.30;55.30;;;;;;5031965;28;19921;-82
2022/06/10 12:28:51;;;;;;;;;;;23.30;54.80;;;;;;5028679;28;20027;-81
2022/06/10 12:31:34;;;;;;;;;;;23.30;54.10;;;;;;5033082;28;19968;-82
2022/06/10 12:34:02;;;;;;;;;;;23.50;54.40;;;;;;5010977;28;20008;-83
2022/06/10 12:36:30;;;;;;;;;;;23.40;55.60;;;;;;5021477;28;19913;-85
2022/06/10 12:38:57;;;;;;;;;;;23.50;55.70;;;;;;5038999;28;19928;-83
2022/06/10 12:41:30;;;;;;;;;;;23.50;55.80;;;;;;5052047;28;20297;-82
2022/06/10 12:43:59;;;;;;;;;;;23.50;56.10;;;;;;5043852;28;20003;-83
2022/06/10 12:46:43;;;;;;;;;;;23.50;55.10;;;;;;5030016;28;19989;-82
2022/06/10 12:49:29;;;;;;;;;;;23.30;56.30;;;;;;5043744;28;19940;-84
2022/06/10 12:52:21;;;;;;;;;;;23.50;55.30;;;;;;4975872;28;19913;-82
2022/06/10 12:54:59;;;;;;;;;;;23.40;56.70;;;;;;5036517;28;19905;-82
2022/06/10 12:57:34;;;;;;;;;;;23.60;55.60;;;;;;5054843;28;19927;-82
2022/06/10 13:00:17;;;;;;;;;;;23.60;55.20;;;;;;5023418;28;20426;-83
2022/06/10 13:02:49;;;;;;;;;;;23.60;55.40;;;;;;5011394;28;19917;-82
2022/06/10 13:05:19;;;;;;;;;;;23.90;55.00;;;;;;5014696;28;20372;-83
2022/06/10 13:07:44;;;;;;;;;;;23.90;55.70;;;;;;5019927;28;19913;-82
2022/06/10 13:10:28;;;;;;;;;;;23.70;55.00;;;;;;5018931;28;19917;-83
2022/06/10 13:12:58;;;;;;;;;;;23.50;55.30;;;;;;5029482;28;19928;-82
2022/06/10 13:15:25;;;;;;;;;;;23.60;55.00;;;;;;5029940;28;19913;-82
2022/06/10 13:17:53;;;;;;;;;;;23.50;55.40;;;;;;5036094;28;19913;-84
2022/06/10 13:20:19;;;;;;;;;;;23.60;56.00;;;;;;5020318;28;19920;-81
2022/06/10 13:22:44;;;;;;;;;;;23.60;57.50;;;;;;5035895;28;19914;-82
2022/06/10 13:25:10;;;;;;;;;;;23.80;56.30;;;;;;5021941;28;19913;-83
2022/06/10 13:27:40;;;;;;;;;;;24.00;56.70;;;;;;5035560;28;19924;-82
2022/06/10 13:30:11;;;;;;;;;;;23.90;54.80;;;;;;5015951;28;19924;-83
2022/06/10 13:32:39;;;;;;;;;;;23.70;54.70;;;;;;5028692;28;19924;-83
2022/06/10 13:35:05;;;;;;;;;;;23.70;54.90;;;;;;5039360;28;19917;-83
2022/06/10 13:37:32;;;;;;;;;;;23.60;54.70;;;;;;5017805;28;19959;-83
2022/06/10 13:40:00;;;;;;;;;;;23.80;54.70;;;;;;5012450;28;19967;-83
2022/06/10 13:42:30;;;;;;;;;;;23.60;55.10;;;;;;5033729;28;19917;-83
2022/06/10 13:45:00;;;;;;;;;;;23.60;55.10;;;;;;5021303;28;20295;-83
2022/06/10 13:47:29;;;;;;;;;;;23.80;54.90;;;;;;5041761;28;19897;-78
2022/06/10 13:52:39;;;;;;;;;;;24.30;53.90;;;;;;5038205;28;19910;-80
2022/06/10 13:55:19;;;;;;;;;;;24.30;55.20;;;;;;5012922;28;20016;-82
2022/06/10 13:57:45;;;;;;;;;;;24.50;53.90;;;;;;5014397;28;20009;-83
2022/06/10 14:00:20;;;;;;;;;;;24.40;54.10;;;;;;5022381;28;19909;-82
2022/06/10 14:02:45;;;;;;;;;;;24.30;53.50;;;;;;5027378;28;20259;-83
2022/06/10 14:05:18;;;;;;;;;;;24.30;54.60;;;;;;5026620;28;19960;-82
2022/06/10 14:07:44;;;;;;;;;;;24.50;53.60;;;;;;5037326;28;19932;-82
2022/06/10 14:10:19;;;;;;;;;;;24.30;52.90;;;;;;5040691;28;19925;-80
2022/06/10 14:13:14;;;;;;;;;;;24.40;53.70;;;;;;4988598;28;20148;-80
2022/06/10 14:15:47;;;;;;;;;;;24.50;52.90;;;;;;4971361;28;20020;-81
2022/06/10 14:18:17;;;;;;;;;;;24.40;54.80;;;;;;4988019;28;19921;-80
2022/06/10 14:20:44;;;;;;;;;;;24.20;54.00;;;;;;5012763;28;20226;-80
2022/06/10 14:23:23;;;;;;;;;;;24.00;54.10;;;;;;5012372;28;20223;-81
2022/06/10 14:26:25;;;;;;;;;;;24.00;53.90;;;;;;5012592;28;19920;-80
2022/06/10 14:28:51;;;;;;;;;;;23.90;53.50;;;;;;4914640;29;20643;-80
2022/06/10 14:31:27;;;;;;;;;;;23.60;54.70;;;;;;5001844;28;20154;-81
2022/06/10 14:33:55;;;;;;;;;;;23.60;54.50;;;;;;5012354;28;19917;-81
2022/06/10 14:36:22;;;;;;;;;;;23.70;54.90;;;;;;5013212;28;20016;-80
2022/06/10 14:39:06;;;;;;;;;;;24.00;54.60;;;;;;4994528;28;20091;-81
2022/06/10 14:41:33;;;;;;;;;;;24.10;54.00;;;;;;4994042;28;19913;-81
2022/06/10 14:43:59;;;;;;;;;;;24.10;55.30;;;;;;5011395;28;19992;-80
2022/06/10 14:46:25;;;;;;;;;;;24.10;53.40;;;;;;5024148;28;20004;-80
2022/06/10 14:48:50;;;;;;;;;;;24.20;53.70;;;;;;4999582;28;20299;-80
2022/06/10 14:51:34;;;;;;;;;;;24.30;53.60;;;;;;5010582;28;19924;-80